x

Diamond Shoals (41025) Wave Buoy

9:50 - Mon 6th Jul 2015 All times are EDT. -4 hours from GMT.

  • Sig Wave height 3.3ft
  • Swell Direction
  • Peak Period 4s
  • Average Period 4s
  • Wind
    20mph, 22mph gusts
  • Sea Temp 81°f
  • Ar Temp 80°f
  • Sea Pressure 1019.1mb
  • Diamond Shoals
  • Diamond Shoals

More Historic Weather Station data

Upgrade to MSW Pro to gain access to the past 30 days of data for over 8000 Wavebouys and Weather Stations around the globe.

Join Pro

Comparision Forecast

View Surf forecast
   
Seg 07/06 9:50 3.5ft 4s 4s 20 22 mph 1019.1mb 81f 80f
8:50 3.5ft 4s 4s 18 20 mph 1019.4mb 81f 81f
7:50 3.5ft 4s 4s 18 22 mph 1019.6mb 82f 81f
6:50 3ft 8s 4s 20 22 mph 1019.8mb 82f 81f
5:50 3ft 8s 4s 18 20 mph 1019.5mb 82f 81f
4:50 3ft 4s 4s 16 18 mph 1019.9mb 83f 80f
3:50 3ft 4s 4s 18 20 mph 1020.1mb 83f 81f
2:50 3ft 8s 4s 18 20 mph 1020.5mb 83f 81f
1:50 2.5ft 9s 4s 18 20 mph 1021.1mb 82f 80f
12:50 2.5ft 13s 4s 13 16 mph 1021.5mb 82f 80f
11:50 2.5ft 5s 4s 13 18 mph 1021.8mb 83f 80f
10:50 2.5ft 5s 4s 13 16 mph 1021.5mb 82f 81f
9:50 2.5ft 8s 5s 13 16 mph 1021.9mb 82f 81f
8:50 2.5ft 9s 5s 9 11 mph 1021.6mb 81f 80f
7:50 2.5ft 5s 5s 9 11 mph 1021.3mb 81f 80f
6:50 2.5ft 9s 5s 11 13 mph 1020.7mb 81f 79f
5:50 2.5ft 8s 5s 11 13 mph 1020.7mb 81f 80f
4:50 2.5ft 8s 5s 13 16 mph 1020.2mb 81f 80f
3:50 2.5ft 8s 5s 11 16 mph 1020.2mb 80f 80f
2:50 2.5ft 9s 4s 13 16 mph 1020.1mb 81f 80f
1:50 2.5ft 5s 4s 13 16 mph 1020.2mb 81f 80f
12:50 3ft 8s 4s 18 20 mph 1019.8mb 81f 81f
Dom 07/05 11:50 3ft 9s 4s 16 18 mph 1020.4mb 81f 81f
10:50 3ft 4s 4s 18 20 mph 1020.8mb 81f 82f
9:50 2.5ft 9s 4s 18 20 mph 1020.4mb 82f 82f
8:50 2.5ft 8s 4s 16 20 mph 1019.8mb 81f 82f
7:50 2.5ft 9s 4s 16 18 mph 1019.7mb 81f 81f
6:50 3ft 8s 5s 13 16 mph 1019.4mb 81f 82f
5:50 3ft 5s 4s 13 16 mph 1019.3mb 81f 81f
4:50 3ft 5s 4s 16 18 mph 1019.8mb 82f 81f
3:50 3ft 4s 4s 16 18 mph 1020.1mb 82f 82f
2:50 3ft 5s 4s 13 16 mph 1020.6mb 82f 81f
1:50 3.5ft 5s 4s 16 18 mph 1020.8mb 81f 81f
12:50 3.5ft 5s 4s 16 18 mph 1020.8mb 81f 80f
11:50 3.5ft 6s 4s 18 20 mph 1020.8mb 81f 80f
10:50 3.5ft 6s 4s 18 20 mph 1020.7mb 81f 80f
9:50 4ft 6s 4s 18 20 mph 1020.6mb 81f 80f
8:50 4.5ft 6s 4s 18 22 mph 1020.2mb 81f 80f
7:50 4.5ft 6s 4s 20 25 mph 1019.8mb 81f 80f
6:50 4.5ft 6s 4s 20 25 mph 1019.4mb 81f 80f
5:50 4.5ft 6s 5s 22 25 mph 1018.9mb 81f 80f
4:50 4.5ft 6s 5s 22 25 mph 1018.2mb 81f 80f
3:50 4.5ft 5s 5s 22 25 mph 1017.9mb 81f 80f
2:50 5ft 6s 5s 20 22 mph 1017.7mb 81f 80f
1:50 5ft 5s 5s 22 27 mph 1017.6mb 81f 80f
12:50 5.5ft 6s 5s 22 29 mph 1017.4mb 81f 81f
Sáb 07/04 11:50 5.5ft 6s 5s 25 29 mph 1017.1mb 81f 81f
10:50 6ft 6s 5s 27 34 mph 1016.9mb 81f 82f
9:50 6ft 6s 5s 25 29 mph 1016.7mb 81f 82f
8:50 5.5ft 6s 5s 25 29 mph 1015.9mb 81f 82f
7:50 6ft 6s 5s 27 31 mph 1015.5mb 81f 82f
6:50 6ft 7s 5s 25 29 mph 1015.5mb 81f 82f
5:50 6ft 6s 5s 25 27 mph 1015.5mb 81f 82f
4:50 7ft 7s 5s 27 34 mph 1015.2mb 82f 81f
3:50 7ft 7s 5s 29 34 mph 1015.2mb 82f 81f
2:50 7ft 7s 5s 27 31 mph 1015.5mb 82f 81f
1:50 7ft 7s 5s 29 36 mph 1015.3mb 82f 81f
12:50 6ft 7s 5s 27 31 mph 1015.4mb 82f 81f
11:50 6ft 7s 5s 29 36 mph 1015.4mb 82f 81f
10:50 6ft 7s 5s 22 27 mph 1015.3mb 82f 81f
9:50 7ft 8s 5s 25 27 mph 1014.9mb 82f 80f
8:50 8ft 7s 5s 25 29 mph 1014.8mb 82f 80f
7:50 7ft 7s 5s 29 34 mph 1014.3mb 82f 80f
6:50 8ft 7s 5s 29 34 mph 1013.6mb 82f 80f
5:50 8.5ft 7s 6s 29 36 mph 1012.4mb 81f 81f
4:50 9ft 8s 6s 31 36 mph 1012.2mb 81f 81f
3:50 8ft 7s 5s 31 36 mph 1012.5mb 81f 81f
2:50 8ft 6s 5s 31 36 mph 1013mb 81f 80f
1:50 7ft 6s 5s 34 40 mph 1012.6mb 81f 80f
12:50 7ft 7s 5s 29 34 mph 1012.5mb 81f 80f
Sex 07/03 11:50 7ft 6s 5s 25 29 mph 1012.4mb 81f 80f
10:50 6ft 5s 5s 22 27 mph 1012.8mb 81f 82f
9:50 6ft 6s 5s 22 29 mph 1012.5mb 81f 81f
8:50 6ft 6s 5s 22 27 mph 1012.6mb 81f 81f
7:50 5.5ft 5s 5s 27 31 mph 1012.8mb 81f 81f
6:50 5ft 7s 5s 25 31 mph 1013.3mb 81f 81f
5:50 4.5ft 7s 5s 22 25 mph 1013.6mb 81f 81f
4:50 5ft 6s 5s 16 20 mph 1014mb 80f 80f
3:50 4.5ft 7s 5s 13 16 mph 1014.7mb 81f 80f
2:50 4ft 7s 5s 13 16 mph 1015mb 81f 79f
1:50 4ft 8s 5s 11 13 mph 1015.2mb 82f 77f
12:50 4.5ft 8s 5s 16 18 mph 1015.7mb 82f 77f
11:50 5ft 7s 5s 18 20 mph 1015.7mb 82f 76f
10:50 5ft 7s 5s 18 22 mph 1015.3mb 82f 76f
9:50 5.5ft 7s 5s 18 20 mph 1015.1mb 83f 77f
8:50 5.5ft 7s 5s 16 20 mph 1014.9mb 83f 77f
7:50 6ft 8s 5s 18 20 mph 1014.7mb 83f 78f
6:50 6ft 7s 5s 22 25 mph 1013.8mb 83f 78f
5:50 6.5ft 7s 6s 18 20 mph 1012.8mb 83f 78f
4:50 7ft 7s 6s 16 20 mph 1012.4mb 82f 79f
3:50 7.5ft 7s 6s 13 16 mph 1012mb 82f 79f